Yang Mei Hu — BQCG — position and weather

sailwx.info

Track history (hours):
 
Tides and Currents Weather Stations Pressure Air Temp Water Temp Dewpoint Dewpoint Depression Visibility Wind Speed Wind Dir Waves Ship Positions

Yang Mei Hu

Last reported at 2015-Jan-28 10:16 UTC. Time now 2015-Jan-29 00:17 UTC.
Position N 22°07' E 113°49'.

Length 245 m; draft 5.7 m.

Type: Tanker. MMSI: 413858000.

Date/timePositionNaut miles runAvg speedWind from/ knotsBaromVisibWave heightAir tempDewpointWater temp
2015-Jan-28 10:16N 22°07' E 113°49'710.4
2015-Jan-28 09:33N 22°14' E 113°48'5647.6
2015-Jan-28 08:23N 23°06' E 113°26'0 0.0
2015-Jan-28 07:29N 23°06' E 113°26'0 0.0
2015-Jan-28 06:29N 23°06' E 113°26'0 0.0
2015-Jan-28 05:29N 23°06' E 113°26'5 5.5
2015-Jan-28 04:33N 23°03' E 113°30'3 2.7
2015-Jan-28 03:32N 23°05' E 113°29'2 2.4
2015-Jan-28 02:29N 23°06' E 113°26'3 2.9
2015-Jan-28 01:33N 23°05' E 113°29'0 0.0
2015-Jan-28 00:33N 23°05' E 113°29'0 0.0
2015-Jan-27 23:33N 23°05' E 113°29'0 0.0
2015-Jan-27 22:33N 23°05' E 113°29'0 0.0
2015-Jan-27 21:33N 23°05' E 113°29'0 0.0
2015-Jan-27 20:33N 23°05' E 113°29'0 0.0
2015-Jan-27 19:32N 23°05' E 113°29'0 0.0
2015-Jan-27 18:33N 23°05' E 113°29'0 0.0
2015-Jan-27 17:29N 23°05' E 113°29'0 0.0
2015-Jan-27 16:33N 23°05' E 113°29'0 0.0
2015-Jan-27 15:33N 23°05' E 113°29'0 0.0
2015-Jan-27 14:33N 23°05' E 113°29'0 0.0
2015-Jan-27 13:33N 23°05' E 113°29'0 0.0
2015-Jan-27 12:33N 23°05' E 113°29'0 0.0
2015-Jan-27 11:33N 23°05' E 113°29'0 0.0
2015-Jan-27 10:33N 23°05' E 113°29'0 0.0
2015-Jan-27 09:33N 23°05' E 113°29'0 0.0
2015-Jan-27 08:33N 23°05' E 113°29'0 0.0
2015-Jan-27 02:33N 23°05' E 113°29'0 0.0
2015-Jan-27 01:33N 23°05' E 113°29'0 0.0
2015-Jan-27 00:33N 23°05' E 113°29'0 0.0
2015-Jan-26 23:33N 23°05' E 113°29'0 0.0
2015-Jan-26 22:33N 23°05' E 113°29'0 0.0
2015-Jan-26 21:33N 23°05' E 113°29'0 0.0
2015-Jan-26 20:33N 23°05' E 113°29'0 0.0
2015-Jan-26 19:33N 23°05' E 113°29'0 0.0
2015-Jan-26 18:33N 23°05' E 113°29'0 0.0
2015-Jan-26 17:33N 23°05' E 113°29'0 0.0
2015-Jan-26 16:33N 23°05' E 113°29'0 0.0
2015-Jan-26 15:33N 23°05' E 113°29'0 0.0
2015-Jan-26 14:33N 23°05' E 113°29'0 0.0
2015-Jan-26 13:33N 23°05' E 113°29'0 0.0
2015-Jan-26 12:33N 23°05' E 113°29'0 0.0
2015-Jan-26 11:33N 23°05' E 113°29'0 0.0
2015-Jan-26 10:33N 23°05' E 113°29'0 0.0
2015-Jan-26 09:33N 23°05' E 113°29'0 0.0
2015-Jan-26 08:33N 23°05' E 113°29'0 0.0
2015-Jan-26 07:33N 23°05' E 113°29'0 0.0
2015-Jan-26 06:33N 23°05' E 113°29'0 0.0
2015-Jan-26 05:33N 23°05' E 113°29'0 0.0
2015-Jan-26 04:33N 23°05' E 113°29'0 0.0
2015-Jan-26 03:33N 23°05' E 113°29'0 0.0
2015-Jan-26 02:33N 23°05' E 113°29'0 0.0
2015-Jan-26 01:33N 23°05' E 113°29'0 0.0
2015-Jan-26 00:33N 23°05' E 113°29'0 0.0
2015-Jan-25 23:33N 23°05' E 113°29'0 0.0
2015-Jan-25 22:33N 23°05' E 113°29'0 0.0
2015-Jan-25 21:33N 23°05' E 113°29'0 0.0
2015-Jan-25 20:33N 23°05' E 113°29'0 0.0
2015-Jan-25 19:33N 23°05' E 113°29'0 0.0
2015-Jan-25 18:33N 23°05' E 113°29'0 0.0
2015-Jan-25 17:33N 23°05' E 113°29'0 0.0
2015-Jan-25 16:33N 23°05' E 113°29'0 0.0
2015-Jan-25 15:33N 23°05' E 113°29'0 0.0
2015-Jan-25 14:33N 23°05' E 113°29'0 0.0
2015-Jan-25 13:33N 23°05' E 113°29'0 0.0
2015-Jan-25 12:33N 23°05' E 113°29'0 0.0
2015-Jan-25 11:33N 23°05' E 113°29'0 0.0
2015-Jan-25 10:33N 23°05' E 113°29'0 0.0
2015-Jan-25 09:33N 23°05' E 113°29'0 0.0
2015-Jan-25 08:33N 23°05' E 113°29'0 0.0
2015-Jan-25 07:33N 23°05' E 113°29'0 0.0
2015-Jan-25 06:33N 23°05' E 113°29'0 0.0
2015-Jan-25 05:32N 23°05' E 113°29'0 0.0
2015-Jan-25 04:32N 23°05' E 113°29'0 0.0
2015-Jan-24 01:33N 23°05' E 113°29'0 0.0
2015-Jan-24 00:33N 23°05' E 113°29'0 0.0
2015-Jan-23 23:33N 23°05' E 113°29'0 0.0
2015-Jan-23 22:33N 23°05' E 113°29'0 0.0
2015-Jan-23 21:33N 23°05' E 113°29'0 0.0
2015-Jan-23 20:33N 23°05' E 113°29'0 0.0
2015-Jan-23 19:33N 23°05' E 113°29'0 0.0
2015-Jan-23 18:32N 23°05' E 113°29'0 0.0
2015-Jan-23 17:32N 23°05' E 113°29'0 0.0
2015-Jan-23 16:33N 23°05' E 113°29'0 0.0
2015-Jan-23 15:33N 23°05' E 113°29'0 0.0
2015-Jan-23 14:33N 23°05' E 113°29'0 0.0
2015-Jan-23 13:33N 23°05' E 113°29'0 0.1
2015-Jan-23 12:33N 23°05' E 113°29'0 0.3
2015-Jan-23 11:34N 23°05' E 113°29'0 0.0
2015-Jan-23 10:33N 23°05' E 113°29'0 0.0
2015-Jan-23 09:33N 23°05' E 113°29'0 0.0
2015-Jan-23 08:33N 23°05' E 113°29'0 0.0
2015-Jan-23 05:29N 23°05' E 113°29'0 0.0
2015-Jan-23 03:15N 23°05' E 113°29'0 0.0
2015-Jan-23 02:24N 23°05' E 113°29'0 0.0
2015-Jan-23 01:23N 23°05' E 113°29'0 0.0
2015-Jan-23 00:29N 23°05' E 113°29'0 0.0
2015-Jan-22 23:29N 23°05' E 113°29'0 0.0
2015-Jan-22 22:29N 23°05' E 113°29'0 0.0
2015-Jan-22 21:29N 23°05' E 113°29'0 0.0
2015-Jan-22 20:29N 23°05' E 113°29'0 0.0
2015-Jan-22 19:29N 23°05' E 113°29'0 0.0
2015-Jan-22 18:29N 23°05' E 113°29'0 0.0
2015-Jan-22 17:29N 23°05' E 113°29'0 0.0
2015-Jan-22 16:29N 23°05' E 113°29'0 0.0
2015-Jan-22 15:23N 23°05' E 113°29'0 0.0
2015-Jan-22 14:29N 23°05' E 113°29'0 0.0
2015-Jan-22 13:29N 23°05' E 113°29'0 0.0
2015-Jan-22 12:23N 23°05' E 113°29'0 0.0
2015-Jan-22 11:29N 23°05' E 113°29'0 0.0
2015-Jan-22 10:29N 23°05' E 113°29'0 0.0
2015-Jan-22 09:29N 23°05' E 113°29'0 0.0
2015-Jan-22 08:23N 23°05' E 113°29'0 0.0
2015-Jan-22 07:23N 23°05' E 113°29'0 0.0
2015-Jan-22 06:29N 23°05' E 113°29'0 0.0
2015-Jan-22 05:29N 23°05' E 113°29'0 0.0
2015-Jan-22 04:29N 23°05' E 113°29'0 0.0
2015-Jan-22 03:29N 23°05' E 113°29'0 0.0
2015-Jan-22 02:29N 23°05' E 113°29'0 0.0
2015-Jan-22 01:29N 23°05' E 113°29'0 0.0
2015-Jan-22 00:23N 23°05' E 113°29'0 0.0
2015-Jan-21 23:11N 23°05' E 113°29'0 0.0
2015-Jan-21 22:47N 23°05' E 113°29'0 0.0
2015-Jan-21 22:41N 23°05' E 113°29'0 0.0
2015-Jan-21 22:29N 23°05' E 113°29'0 0.0
2015-Jan-21 21:29N 23°05' E 113°29'0 0.0
2015-Jan-21 20:29N 23°05' E 113°29'0 0.0
2015-Jan-21 19:23N 23°05' E 113°29'0 0.0
2015-Jan-21 18:29N 23°05' E 113°29'0 0.0
2015-Jan-21 17:29N 23°05' E 113°29'0 0.0
2015-Jan-21 16:29N 23°05' E 113°29'0 0.0
2015-Jan-21 15:17N 23°05' E 113°29'0 0.0
2015-Jan-21 14:29N 23°05' E 113°29'0 0.0
2015-Jan-21 13:11N 23°05' E 113°29'0 0.0
2015-Jan-21 12:23N 23°05' E 113°29'0 0.0
2015-Jan-21 11:29N 23°05' E 113°29'0 0.0
2015-Jan-21 10:29N 23°05' E 113°29'0 0.0
2015-Jan-21 09:29N 23°05' E 113°29'0 0.0
2015-Jan-21 08:08N 23°05' E 113°29'0 0.0
2015-Jan-21 07:21N 23°05' E 113°29'0 0.0
2015-Jan-21 06:33N 23°05' E 113°29'0 0.0
2015-Jan-21 05:32N 23°05' E 113°29'0 0.0
2015-Jan-21 04:32N 23°05' E 113°29'0 0.0
2015-Jan-21 03:26N 23°05' E 113°29'0 0.0
2015-Jan-21 02:32N 23°05' E 113°29'0 0.0
2015-Jan-21 01:32N 23°05' E 113°29'0 0.0
2015-Jan-21 00:26N 23°05' E 113°29'0 0.0
2015-Jan-20 23:32N 23°05' E 113°29'0 0.0
2015-Jan-20 22:32N 23°05' E 113°29'0 0.0
2015-Jan-20 21:32N 23°05' E 113°29'0 0.0
2015-Jan-20 20:26N 23°05' E 113°29'0 0.0
2015-Jan-20 19:32N 23°05' E 113°29'0 0.0
2015-Jan-20 18:27N 23°05' E 113°29'0 0.0
2015-Jan-20 17:14N 23°05' E 113°29'0 0.0
2015-Jan-20 16:32N 23°05' E 113°29'0 0.0
2015-Jan-20 15:32N 23°05' E 113°29'0 0.0
2015-Jan-20 14:32N 23°05' E 113°29'0 0.0
2015-Jan-20 13:26N 23°05' E 113°29'0 0.0
2015-Jan-20 12:26N 23°05' E 113°29'0 0.0
2015-Jan-20 11:33N 23°05' E 113°29'0 0.0
2015-Jan-20 10:32N 23°05' E 113°29'0 0.0
2015-Jan-20 09:33N 23°05' E 113°29'0 0.0
2015-Jan-20 08:26N 23°05' E 113°29'0 0.0
2015-Jan-20 07:32N 23°05' E 113°29'0 0.0
2015-Jan-20 06:33N 23°05' E 113°29'0 0.0
2015-Jan-20 05:32N 23°05' E 113°29'0 0.0
2015-Jan-20 04:26N 23°05' E 113°29'  
Track history (hours):
 
Tides and Currents Weather Stations Pressure Air Temp Water Temp Dewpoint Dewpoint Depression Visibility Wind Speed Wind Dir Waves Ship Positions

Yang Mei Hu

Last reported at 2015-Jan-28 10:16 UTC. Time now 2015-Jan-29 00:17 UTC.
Position N 22°07' E 113°49'.

Length 245 m; draft 5.7 m.

Type: Tanker. MMSI: 413858000.

Date/timePositionNaut miles runAvg speedWind from/ knotsBaromVisibWave heightAir tempDewpointWater temp
2015-Jan-28 10:16N 22°07' E 113°49'710.4
2015-Jan-28 09:33N 22°14' E 113°48'5647.6
2015-Jan-28 08:23N 23°06' E 113°26'0 0.0
2015-Jan-28 07:29N 23°06' E 113°26'0 0.0
2015-Jan-28 06:29N 23°06' E 113°26'0 0.0
2015-Jan-28 05:29N 23°06' E 113°26'5 5.5
2015-Jan-28 04:33N 23°03' E 113°30'3 2.7
2015-Jan-28 03:32N 23°05' E 113°29'2 2.4
2015-Jan-28 02:29N 23°06' E 113°26'3 2.9
2015-Jan-28 01:33N 23°05' E 113°29'0 0.0
2015-Jan-28 00:33N 23°05' E 113°29'0 0.0
2015-Jan-27 23:33N 23°05' E 113°29'0 0.0
2015-Jan-27 22:33N 23°05' E 113°29'0 0.0
2015-Jan-27 21:33N 23°05' E 113°29'0 0.0
2015-Jan-27 20:33N 23°05' E 113°29'0 0.0
2015-Jan-27 19:32N 23°05' E 113°29'0 0.0
2015-Jan-27 18:33N 23°05' E 113°29'0 0.0
2015-Jan-27 17:29N 23°05' E 113°29'0 0.0
2015-Jan-27 16:33N 23°05' E 113°29'0 0.0
2015-Jan-27 15:33N 23°05' E 113°29'0 0.0
2015-Jan-27 14:33N 23°05' E 113°29'0 0.0
2015-Jan-27 13:33N 23°05' E 113°29'0 0.0
2015-Jan-27 12:33N 23°05' E 113°29'0 0.0
2015-Jan-27 11:33N 23°05' E 113°29'0 0.0
2015-Jan-27 10:33N 23°05' E 113°29'0 0.0
2015-Jan-27 09:33N 23°05' E 113°29'0 0.0
2015-Jan-27 08:33N 23°05' E 113°29'0 0.0
2015-Jan-27 02:33N 23°05' E 113°29'0 0.0
2015-Jan-27 01:33N 23°05' E 113°29'0 0.0
2015-Jan-27 00:33N 23°05' E 113°29'0 0.0
2015-Jan-26 23:33N 23°05' E 113°29'0 0.0
2015-Jan-26 22:33N 23°05' E 113°29'0 0.0
2015-Jan-26 21:33N 23°05' E 113°29'0 0.0
2015-Jan-26 20:33N 23°05' E 113°29'0 0.0
2015-Jan-26 19:33N 23°05' E 113°29'0 0.0
2015-Jan-26 18:33N 23°05' E 113°29'0 0.0
2015-Jan-26 17:33N 23°05' E 113°29'0 0.0
2015-Jan-26 16:33N 23°05' E 113°29'0 0.0
2015-Jan-26 15:33N 23°05' E 113°29'0 0.0
2015-Jan-26 14:33N 23°05' E 113°29'0 0.0
2015-Jan-26 13:33N 23°05' E 113°29'0 0.0
2015-Jan-26 12:33N 23°05' E 113°29'0 0.0
2015-Jan-26 11:33N 23°05' E 113°29'0 0.0
2015-Jan-26 10:33N 23°05' E 113°29'0 0.0
2015-Jan-26 09:33N 23°05' E 113°29'0 0.0
2015-Jan-26 08:33N 23°05' E 113°29'0 0.0
2015-Jan-26 07:33N 23°05' E 113°29'0 0.0
2015-Jan-26 06:33N 23°05' E 113°29'0 0.0
2015-Jan-26 05:33N 23°05' E 113°29'0 0.0
2015-Jan-26 04:33N 23°05' E 113°29'0 0.0
2015-Jan-26 03:33N 23°05' E 113°29'0 0.0
2015-Jan-26 02:33N 23°05' E 113°29'0 0.0
2015-Jan-26 01:33N 23°05' E 113°29'0 0.0
2015-Jan-26 00:33N 23°05' E 113°29'0 0.0
2015-Jan-25 23:33N 23°05' E 113°29'0 0.0
2015-Jan-25 22:33N 23°05' E 113°29'0 0.0
2015-Jan-25 21:33N 23°05' E 113°29'0 0.0
2015-Jan-25 20:33N 23°05' E 113°29'0 0.0
2015-Jan-25 19:33N 23°05' E 113°29'0 0.0
2015-Jan-25 18:33N 23°05' E 113°29'0 0.0
2015-Jan-25 17:33N 23°05' E 113°29'0 0.0
2015-Jan-25 16:33N 23°05' E 113°29'0 0.0
2015-Jan-25 15:33N 23°05' E 113°29'0 0.0
2015-Jan-25 14:33N 23°05' E 113°29'0 0.0
2015-Jan-25 13:33N 23°05' E 113°29'0 0.0
2015-Jan-25 12:33N 23°05' E 113°29'0 0.0
2015-Jan-25 11:33N 23°05' E 113°29'0 0.0
2015-Jan-25 10:33N 23°05' E 113°29'0 0.0
2015-Jan-25 09:33N 23°05' E 113°29'0 0.0
2015-Jan-25 08:33N 23°05' E 113°29'0 0.0
2015-Jan-25 07:33N 23°05' E 113°29'0 0.0
2015-Jan-25 06:33N 23°05' E 113°29'0 0.0
2015-Jan-25 05:32N 23°05' E 113°29'0 0.0
2015-Jan-25 04:32N 23°05' E 113°29'0 0.0
2015-Jan-24 01:33N 23°05' E 113°29'0 0.0
2015-Jan-24 00:33N 23°05' E 113°29'0 0.0
2015-Jan-23 23:33N 23°05' E 113°29'0 0.0
2015-Jan-23 22:33N 23°05' E 113°29'0 0.0
2015-Jan-23 21:33N 23°05' E 113°29'0 0.0
2015-Jan-23 20:33N 23°05' E 113°29'0 0.0
2015-Jan-23 19:33N 23°05' E 113°29'0 0.0
2015-Jan-23 18:32N 23°05' E 113°29'0 0.0
2015-Jan-23 17:32N 23°05' E 113°29'0 0.0
2015-Jan-23 16:33N 23°05' E 113°29'0 0.0
2015-Jan-23 15:33N 23°05' E 113°29'0 0.0
2015-Jan-23 14:33N 23°05' E 113°29'0 0.0
2015-Jan-23 13:33N 23°05' E 113°29'0 0.1
2015-Jan-23 12:33N 23°05' E 113°29'0 0.3
2015-Jan-23 11:34N 23°05' E 113°29'0 0.0
2015-Jan-23 10:33N 23°05' E 113°29'0 0.0
2015-Jan-23 09:33N 23°05' E 113°29'0 0.0
2015-Jan-23 08:33N 23°05' E 113°29'0 0.0
2015-Jan-23 05:29N 23°05' E 113°29'0 0.0
2015-Jan-23 03:15N 23°05' E 113°29'0 0.0
2015-Jan-23 02:24N 23°05' E 113°29'0 0.0
2015-Jan-23 01:23N 23°05' E 113°29'0 0.0
2015-Jan-23 00:29N 23°05' E 113°29'0 0.0
2015-Jan-22 23:29N 23°05' E 113°29'0 0.0
2015-Jan-22 22:29N 23°05' E 113°29'0 0.0
2015-Jan-22 21:29N 23°05' E 113°29'0 0.0
2015-Jan-22 20:29N 23°05' E 113°29'0 0.0
2015-Jan-22 19:29N 23°05' E 113°29'0 0.0
2015-Jan-22 18:29N 23°05' E 113°29'0 0.0
2015-Jan-22 17:29N 23°05' E 113°29'0 0.0
2015-Jan-22 16:29N 23°05' E 113°29'0 0.0
2015-Jan-22 15:23N 23°05' E 113°29'0 0.0
2015-Jan-22 14:29N 23°05' E 113°29'0 0.0
2015-Jan-22 13:29N 23°05' E 113°29'0 0.0
2015-Jan-22 12:23N 23°05' E 113°29'0 0.0
2015-Jan-22 11:29N 23°05' E 113°29'0 0.0
2015-Jan-22 10:29N 23°05' E 113°29'0 0.0
2015-Jan-22 09:29N 23°05' E 113°29'0 0.0
2015-Jan-22 08:23N 23°05' E 113°29'0 0.0
2015-Jan-22 07:23N 23°05' E 113°29'0 0.0
2015-Jan-22 06:29N 23°05' E 113°29'0 0.0
2015-Jan-22 05:29N 23°05' E 113°29'0 0.0
2015-Jan-22 04:29N 23°05' E 113°29'0 0.0
2015-Jan-22 03:29N 23°05' E 113°29'0 0.0
2015-Jan-22 02:29N 23°05' E 113°29'0 0.0
2015-Jan-22 01:29N 23°05' E 113°29'0 0.0
2015-Jan-22 00:23N 23°05' E 113°29'0 0.0
2015-Jan-21 23:11N 23°05' E 113°29'0 0.0
2015-Jan-21 22:47N 23°05' E 113°29'0 0.0
2015-Jan-21 22:41N 23°05' E 113°29'0 0.0
2015-Jan-21 22:29N 23°05' E 113°29'0 0.0
2015-Jan-21 21:29N 23°05' E 113°29'0 0.0
2015-Jan-21 20:29N 23°05' E 113°29'0 0.0
2015-Jan-21 19:23N 23°05' E 113°29'0 0.0
2015-Jan-21 18:29N 23°05' E 113°29'0 0.0
2015-Jan-21 17:29N 23°05' E 113°29'0 0.0
2015-Jan-21 16:29N 23°05' E 113°29'0 0.0
2015-Jan-21 15:17N 23°05' E 113°29'0 0.0
2015-Jan-21 14:29N 23°05' E 113°29'0 0.0
2015-Jan-21 13:11N 23°05' E 113°29'0 0.0
2015-Jan-21 12:23N 23°05' E 113°29'0 0.0
2015-Jan-21 11:29N 23°05' E 113°29'0 0.0
2015-Jan-21 10:29N 23°05' E 113°29'0 0.0
2015-Jan-21 09:29N 23°05' E 113°29'0 0.0
2015-Jan-21 08:08N 23°05' E 113°29'0 0.0
2015-Jan-21 07:21N 23°05' E 113°29'0 0.0
2015-Jan-21 06:33N 23°05' E 113°29'0 0.0
2015-Jan-21 05:32N 23°05' E 113°29'0 0.0
2015-Jan-21 04:32N 23°05' E 113°29'0 0.0
2015-Jan-21 03:26N 23°05' E 113°29'0 0.0
2015-Jan-21 02:32N 23°05' E 113°29'0 0.0
2015-Jan-21 01:32N 23°05' E 113°29'0 0.0
2015-Jan-21 00:26N 23°05' E 113°29'0 0.0
2015-Jan-20 23:32N 23°05' E 113°29'0 0.0
2015-Jan-20 22:32N 23°05' E 113°29'0 0.0
2015-Jan-20 21:32N 23°05' E 113°29'0 0.0
2015-Jan-20 20:26N 23°05' E 113°29'0 0.0
2015-Jan-20 19:32N 23°05' E 113°29'0 0.0
2015-Jan-20 18:27N 23°05' E 113°29'0 0.0
2015-Jan-20 17:14N 23°05' E 113°29'0 0.0
2015-Jan-20 16:32N 23°05' E 113°29'0 0.0
2015-Jan-20 15:32N 23°05' E 113°29'0 0.0
2015-Jan-20 14:32N 23°05' E 113°29'0 0.0
2015-Jan-20 13:26N 23°05' E 113°29'0 0.0
2015-Jan-20 12:26N 23°05' E 113°29'0 0.0
2015-Jan-20 11:33N 23°05' E 113°29'0 0.0
2015-Jan-20 10:32N 23°05' E 113°29'0 0.0
2015-Jan-20 09:33N 23°05' E 113°29'0 0.0
2015-Jan-20 08:26N 23°05' E 113°29'0 0.0
2015-Jan-20 07:32N 23°05' E 113°29'0 0.0
2015-Jan-20 06:33N 23°05' E 113°29'0 0.0
2015-Jan-20 05:32N 23°05' E 113°29'0 0.0
2015-Jan-20 04:26N 23°05' E 113°29'  

Dump ship's entire track history